Time;durP1;ratioP1;P1;durP2;ratioP2;P2;SDS_P1;SDS_P2;PMS_P1;PMS_P2;Temp;Humidity;BMP_temperature;BMP_pressure;BME280_temperature;BME280_humidity;BME280_pressure;Samples;Min_cycle;Max_cycle;Signal;HPM_P1;HPM_P2
2022/08/18 00:02:17;;;;;;;3.33;2.95;;;23.40;70.10;;;;;;5045448;28;20187;-74
2022/08/18 00:04:43;;;;;;;2.90;2.80;;;23.40;69.40;;;;;;5043679;28;20550;-74
2022/08/18 00:07:13;;;;;;;2.45;2.40;;;23.30;69.40;;;;;;5047592;28;20207;-73
2022/08/18 00:09:40;;;;;;;3.60;3.40;;;23.20;68.80;;;;;;5045067;28;20195;-75
2022/08/18 00:12:20;;;;;;;3.30;3.10;;;23.10;69.40;;;;;;5046868;28;20188;-74
2022/08/18 00:14:47;;;;;;;3.53;3.15;;;23.10;68.90;;;;;;5048812;28;20186;-74
2022/08/18 00:17:13;;;;;;;4.03;3.20;;;23.00;68.90;;;;;;5040713;28;20279;-74
2022/08/18 00:19:39;;;;;;;5.50;2.88;;;23.00;68.90;;;;;;5048590;28;20182;-74
2022/08/18 00:22:05;;;;;;;2.47;2.33;;;22.90;69.60;;;;;;5049519;28;20186;-73
2022/08/18 00:24:31;;;;;;;2.70;2.60;;;22.90;69.70;;;;;;5047857;28;20567;-74
2022/08/18 00:26:57;;;;;;;3.50;2.47;;;22.90;71.70;;;;;;5049058;28;20316;-74
2022/08/18 00:29:23;;;;;;;2.63;2.40;;;22.80;70.20;;;;;;5042672;28;20226;-74
2022/08/18 00:31:49;;;;;;;3.08;2.83;;;22.80;70.50;;;;;;5046423;28;20203;-74
2022/08/18 00:34:15;;;;;;;7.07;2.60;;;22.70;70.90;;;;;;5047142;28;20265;-74
2022/08/18 00:36:40;;;;;;;3.03;2.92;;;22.60;69.40;;;;;;5056473;28;20215;-74
2022/08/18 00:39:06;;;;;;;2.85;2.65;;;22.60;69.80;;;;;;5051409;28;20188;-74
2022/08/18 00:41:32;;;;;;;2.85;2.70;;;22.50;69.90;;;;;;5052274;28;20183;-74
2022/08/18 00:43:58;;;;;;;2.58;2.38;;;22.50;70.50;;;;;;5046492;28;20252;-74
2022/08/18 00:46:28;;;;;;;3.03;2.88;;;22.50;70.80;;;;;;5046551;28;20292;-74
2022/08/18 00:48:53;;;;;;;3.03;2.63;;;22.40;70.10;;;;;;5045507;28;20203;-75
2022/08/18 00:51:29;;;;;;;2.53;2.33;;;22.40;69.70;;;;;;5053005;28;20175;-74
2022/08/18 00:54:22;;;;;;;2.90;2.63;;;22.30;69.90;;;;;;5053800;28;20187;-74
2022/08/18 00:56:56;;;;;;;3.97;2.75;;;22.30;70.20;;;;;;5054435;28;20242;-74
2022/08/18 00:59:45;;;;;;;2.92;2.83;;;22.30;70.00;;;;;;5052303;28;21155;-74
2022/08/18 01:02:39;;;;;;;2.47;2.47;;;22.20;69.90;;;;;;5050000;28;20199;-75
2022/08/18 01:05:14;;;;;;;2.35;2.25;;;22.20;69.60;;;;;;5049926;28;20190;-75
2022/08/18 01:07:46;;;;;;;2.90;2.80;;;22.20;70.80;;;;;;5047971;28;20646;-75
2022/08/18 01:10:15;;;;;;;4.75;2.97;;;22.10;71.30;;;;;;5051534;28;20706;-75
2022/08/18 01:12:56;;;;;;;2.95;2.85;;;22.10;71.40;;;;;;5045662;28;20190;-74
2022/08/18 01:15:24;;;;;;;2.95;2.75;;;22.10;72.50;;;;;;5045352;28;20270;-74
2022/08/18 01:23:31;;;;;;;2.65;2.55;;;22.00;72.30;;;;;;5046370;28;20203;-74
2022/08/18 01:26:02;;;;;;;3.22;2.92;;;21.90;71.70;;;;;;5051804;28;20189;-75
2022/08/18 01:28:38;;;;;;;3.35;3.15;;;21.90;72.80;;;;;;5051756;28;20192;-74
2022/08/18 01:31:05;;;;;;;4.22;2.60;;;21.80;72.50;;;;;;5048057;28;20266;-74
2022/08/18 01:33:35;;;;;;;3.28;3.17;;;21.80;73.70;;;;;;5050649;28;20624;-74
2022/08/18 01:36:15;;;;;;;3.38;3.03;;;21.80;72.90;;;;;;5048999;28;20210;-74
2022/08/18 01:38:45;;;;;;;3.83;2.95;;;21.70;72.50;;;;;;5048764;28;20614;-75
2022/08/18 01:41:11;;;;;;;3.25;3.05;;;21.70;72.60;;;;;;5051746;28;20182;-76
2022/08/18 01:43:37;;;;;;;2.90;2.80;;;21.60;72.20;;;;;;5053002;28;20202;-75
2022/08/18 01:46:03;;;;;;;4.38;3.30;;;21.60;72.10;;;;;;5051858;28;20246;-75
2022/08/18 01:48:33;;;;;;;2.90;2.70;;;21.60;71.90;;;;;;5048796;28;20668;-75
2022/08/18 01:51:02;;;;;;;3.50;3.00;;;21.50;72.10;;;;;;5050015;28;20254;-75
2022/08/18 01:53:27;;;;;;;2.90;2.80;;;21.50;72.20;;;;;;5044476;28;20187;-75
2022/08/18 01:55:54;;;;;;;3.55;2.97;;;21.50;72.70;;;;;;5045963;28;20257;-75
2022/08/18 01:58:26;;;;;;;3.17;2.65;;;21.50;73.60;;;;;;5046350;28;20219;-75
2022/08/18 02:01:00;;;;;;;4.82;3.00;;;21.50;73.30;;;;;;5047812;28;20183;-74
2022/08/18 02:03:35;;;;;;;2.90;2.80;;;21.50;73.60;;;;;;5045985;28;20183;-74
2022/08/18 02:06:04;;;;;;;3.65;3.20;;;21.40;72.30;;;;;;5046546;28;20207;-75
2022/08/18 02:08:30;;;;;;;2.90;2.80;;;21.40;72.10;;;;;;5048382;28;20179;-75
2022/08/18 02:10:57;;;;;;;3.30;3.17;;;21.40;72.90;;;;;;5047990;28;20336;-75
2022/08/18 02:13:24;;;;;;;3.15;2.85;;;21.40;74.50;;;;;;5044614;28;20187;-75
2022/08/18 02:15:50;;;;;;;2.95;2.70;;;21.40;76.40;;;;;;5050310;28;20207;-75
2022/08/18 02:18:18;;;;;;;3.47;3.25;;;21.30;75.80;;;;;;5048638;28;20977;-75
2022/08/18 02:20:44;;;;;;;3.03;2.90;;;21.30;75.30;;;;;;5050074;28;20181;-75
2022/08/18 02:23:11;;;;;;;4.20;3.28;;;21.30;75.20;;;;;;5046733;28;20191;-75
2022/08/18 02:25:37;;;;;;;3.20;3.10;;;21.20;75.30;;;;;;5048559;28;20206;-75
2022/08/18 02:28:04;;;;;;;3.03;2.88;;;21.20;75.50;;;;;;5047636;28;20215;-75
2022/08/18 02:30:30;;;;;;;3.58;3.28;;;21.20;76.20;;;;;;5048493;28;20258;-75
2022/08/18 02:33:00;;;;;;;3.17;2.97;;;21.20;75.70;;;;;;5047425;28;20188;-75
2022/08/18 02:35:26;;;;;;;3.78;3.03;;;21.20;74.70;;;;;;5045532;28;20680;-75
2022/08/18 02:37:52;;;;;;;3.22;3.10;;;21.10;74.50;;;;;;5050912;28;20264;-75
2022/08/18 02:40:18;;;;;;;2.88;2.78;;;21.10;74.50;;;;;;5044971;28;20184;-75
2022/08/18 02:42:45;;;;;;;3.10;2.90;;;21.10;74.90;;;;;;5047138;28;20956;-75
2022/08/18 02:45:12;;;;;;;2.63;2.47;;;21.10;74.30;;;;;;5054797;28;20183;-75
2022/08/18 02:47:38;;;;;;;3.42;3.22;;;21.10;75.30;;;;;;5048423;28;20977;-75
2022/08/18 02:50:06;;;;;;;2.97;2.80;;;21.10;75.70;;;;;;5048687;28;20186;-75
2022/08/18 02:52:33;;;;;;;2.67;2.58;;;21.00;76.60;;;;;;5045630;28;20217;-74
2022/08/18 02:55:02;;;;;;;3.40;3.13;;;21.00;76.70;;;;;;5047070;28;20258;-75
2022/08/18 02:57:29;;;;;;;3.22;3.00;;;21.00;76.50;;;;;;5045856;28;20306;-75
2022/08/18 02:59:55;;;;;;;3.00;2.72;;;21.10;77.70;;;;;;5047983;28;20180;-75
2022/08/18 03:02:21;;;;;;;3.53;3.38;;;21.00;77.60;;;;;;5048672;28;20187;-75
2022/08/18 03:04:47;;;;;;;2.95;2.85;;;21.00;77.80;;;;;;5044766;28;20188;-75
2022/08/18 03:07:13;;;;;;;3.38;3.08;;;21.00;77.70;;;;;;5048402;28;20187;-75
2022/08/18 03:09:40;;;;;;;3.70;3.50;;;21.00;77.70;;;;;;5048245;28;20262;-75
2022/08/18 03:12:07;;;;;;;3.25;3.10;;;21.00;77.60;;;;;;5048712;28;20261;-75
2022/08/18 03:14:34;;;;;;;3.10;2.85;;;20.90;77.00;;;;;;5045424;28;20186;-75
2022/08/18 03:17:03;;;;;;;3.13;3.03;;;20.90;77.50;;;;;;5050598;28;20377;-75
2022/08/18 03:19:29;;;;;;;3.05;2.83;;;20.90;76.60;;;;;;5048370;28;20180;-75
2022/08/18 03:21:57;;;;;;;3.03;2.83;;;20.90;75.90;;;;;;5047639;28;20771;-75
2022/08/18 03:24:25;;;;;;;2.92;2.80;;;20.80;76.30;;;;;;5046546;28;20213;-75
2022/08/18 03:26:52;;;;;;;2.92;2.83;;;20.80;76.20;;;;;;5045343;28;20838;-75
2022/08/18 03:29:19;;;;;;;3.90;3.03;;;20.80;78.30;;;;;;5048041;28;20282;-73
2022/08/18 03:31:47;;;;;;;3.33;3.05;;;20.80;79.00;;;;;;5048852;28;20240;-75
2022/08/18 03:34:14;;;;;;;3.00;2.90;;;20.70;78.40;;;;;;5077823;28;20244;-75
2022/08/18 03:36:40;;;;;;;3.45;3.22;;;20.70;79.30;;;;;;5045229;28;20277;-74
2022/08/18 03:39:11;;;;;;;2.92;2.83;;;20.70;78.50;;;;;;5045928;28;20314;-74
2022/08/18 03:41:40;;;;;;;4.15;3.75;;;20.60;77.50;;;;;;5048235;28;20194;-74
2022/08/18 03:44:06;;;;;;;3.97;3.30;;;20.60;77.90;;;;;;5047614;28;20183;-74
2022/08/18 03:46:32;;;;;;;3.40;3.20;;;20.60;77.00;;;;;;5044987;28;20179;-74
2022/08/18 03:48:59;;;;;;;3.42;3.13;;;20.50;77.00;;;;;;5046044;28;20196;-74
2022/08/18 03:51:28;;;;;;;2.92;2.80;;;20.60;77.50;;;;;;5043711;28;20188;-74
2022/08/18 03:53:59;;;;;;;3.05;2.70;;;20.50;77.50;;;;;;5045940;28;20209;-74
2022/08/18 03:56:32;;;;;;;3.80;3.15;;;20.50;77.70;;;;;;5046998;28;20287;-74
2022/08/18 03:59:00;;;;;;;3.63;3.30;;;20.50;77.80;;;;;;5044238;28;20191;-74
2022/08/18 04:01:31;;;;;;;3.42;3.20;;;20.50;77.70;;;;;;5043458;28;20184;-74
2022/08/18 04:04:01;;;;;;;3.22;3.13;;;20.50;78.40;;;;;;5044415;28;20253;-74
2022/08/18 04:06:40;;;;;;;4.45;3.35;;;20.50;78.40;;;;;;5082363;28;20179;-74
2022/08/18 04:09:12;;;;;;;3.90;3.67;;;20.50;78.50;;;;;;5047434;28;20236;-73
2022/08/18 04:11:42;;;;;;;4.10;3.83;;;20.50;77.80;;;;;;5046197;28;20964;-73
2022/08/18 04:14:09;;;;;;;3.15;3.05;;;20.40;78.00;;;;;;5065830;28;20191;-74
2022/08/18 04:16:36;;;;;;;4.25;3.88;;;20.40;78.20;;;;;;5047028;28;20253;-74
2022/08/18 04:19:03;;;;;;;3.38;3.10;;;20.40;78.20;;;;;;5050917;28;20215;-74
2022/08/18 04:21:35;;;;;;;3.97;3.78;;;20.40;78.90;;;;;;5050245;28;20210;-74
2022/08/18 04:24:03;;;;;;;4.30;4.10;;;20.30;77.00;;;;;;5052265;28;20268;-74
2022/08/18 04:26:37;;;;;;;3.97;3.67;;;20.30;78.10;;;;;;5047750;28;20183;-74
2022/08/18 04:29:06;;;;;;;5.70;4.07;;;20.30;76.70;;;;;;5052094;28;20192;-74
2022/08/18 04:31:32;;;;;;;5.38;3.92;;;20.30;77.20;;;;;;5048249;28;20179;-73
2022/08/18 04:34:00;;;;;;;3.85;3.63;;;20.30;77.30;;;;;;5051588;28;20190;-74
2022/08/18 04:36:27;;;;;;;4.35;3.97;;;20.40;77.80;;;;;;5053462;28;20218;-75
2022/08/18 04:38:53;;;;;;;4.97;4.55;;;20.40;77.10;;;;;;5046688;28;20188;-75
2022/08/18 04:41:23;;;;;;;4.25;3.97;;;20.40;77.60;;;;;;5052030;28;20180;-75
2022/08/18 04:43:51;;;;;;;4.20;3.90;;;20.40;77.80;;;;;;5048475;28;20250;-75
2022/08/18 04:46:17;;;;;;;4.72;4.32;;;20.50;78.40;;;;;;5051248;28;20278;-75
2022/08/18 04:48:43;;;;;;;4.38;3.97;;;20.50;78.30;;;;;;5048568;28;20198;-75
2022/08/18 04:51:14;;;;;;;4.60;4.20;;;20.50;78.60;;;;;;5049427;28;20294;-75
2022/08/18 04:53:43;;;;;;;5.43;4.32;;;20.50;77.70;;;;;;5052295;28;20550;-75
2022/08/18 04:56:26;;;;;;;6.35;4.57;;;20.60;79.30;;;;;;5050969;28;20237;-75
2022/08/18 04:58:58;;;;;;;4.53;4.22;;;20.60;78.00;;;;;;5049043;28;20198;-76
2022/08/18 05:01:32;;;;;;;5.35;4.93;;;20.60;77.50;;;;;;5046788;28;20657;-76
2022/08/18 05:03:58;;;;;;;5.40;4.93;;;20.70;79.60;;;;;;5050794;28;20219;-76
2022/08/18 05:06:25;;;;;;;4.53;4.25;;;20.80;79.20;;;;;;5058299;28;20595;-76
2022/08/18 05:08:57;;;;;;;4.63;4.20;;;20.80;79.00;;;;;;5052248;28;20278;-76
2022/08/18 05:11:27;;;;;;;4.80;4.47;;;20.90;78.30;;;;;;5057104;28;20186;-76
2022/08/18 05:13:55;;;;;;;4.85;4.47;;;20.90;79.60;;;;;;5051686;28;20317;-75
2022/08/18 05:16:21;;;;;;;4.60;4.30;;;20.90;78.90;;;;;;5049913;28;20207;-75
2022/08/18 05:18:47;;;;;;;4.63;4.25;;;21.00;78.50;;;;;;5048594;28;20358;-76
2022/08/18 05:21:14;;;;;;;4.25;3.97;;;21.00;78.80;;;;;;5050694;28;20276;-75
2022/08/18 05:23:45;;;;;;;4.88;4.47;;;21.00;77.90;;;;;;5047450;28;20175;-76
2022/08/18 05:26:15;;;;;;;4.90;4.60;;;21.10;77.50;;;;;;5051781;28;20214;-76
2022/08/18 05:28:42;;;;;;;4.80;4.40;;;21.10;77.90;;;;;;5040596;28;20184;-76
2022/08/18 05:31:17;;;;;;;4.30;4.03;;;21.20;77.50;;;;;;5045619;28;20180;-75
2022/08/18 05:33:44;;;;;;;4.35;4.15;;;21.20;77.10;;;;;;5044734;28;20191;-75
2022/08/18 05:36:47;;;;;;;4.70;4.40;;;21.30;78.10;;;;;;5046517;28;20649;-75
2022/08/18 05:39:34;;;;;;;4.75;4.35;;;21.40;77.40;;;;;;4997760;28;20606;-76
2022/08/18 05:42:13;;;;;;;4.93;4.70;;;21.40;76.90;;;;;;4999497;28;20193;-76
2022/08/18 05:44:43;;;;;;;5.15;4.85;;;21.50;77.00;;;;;;4997353;28;20197;-75
2022/08/18 05:47:24;;;;;;;5.30;4.88;;;21.60;77.80;;;;;;4982759;28;20633;-77
2022/08/18 05:49:51;;;;;;;5.07;4.78;;;21.60;78.20;;;;;;4997239;28;20254;-76
2022/08/18 05:52:38;;;;;;;5.80;5.28;;;21.70;77.90;;;;;;4999798;28;20197;-76
2022/08/18 05:58:00;;;;;;;4.45;4.18;;;21.80;77.60;;;;;;5000834;28;20227;-75
2022/08/18 06:00:28;;;;;;;5.30;4.88;;;21.90;77.50;;;;;;4999432;28;20196;-74
2022/08/18 06:03:26;;;;;;;5.15;4.88;;;21.90;77.30;;;;;;4998888;28;20197;-75
2022/08/18 06:06:00;;;;;;;5.70;4.38;;;21.90;77.10;;;;;;4948776;28;20205;-75
2022/08/18 06:08:37;;;;;;;5.38;5.07;;;22.00;77.00;;;;;;4958309;28;20201;-74
2022/08/18 06:11:04;;;;;;;6.40;5.90;;;22.10;78.10;;;;;;4951967;28;20312;-75
2022/08/18 06:13:36;;;;;;;5.97;5.38;;;22.10;78.10;;;;;;4949599;28;20210;-75
2022/08/18 06:16:10;;;;;;;4.85;4.55;;;22.20;77.90;;;;;;4979054;28;20227;-75
2022/08/18 06:19:00;;;;;;;5.72;5.30;;;22.30;77.30;;;;;;5015425;28;20234;-74
2022/08/18 06:21:35;;;;;;;5.30;4.95;;;22.30;78.10;;;;;;5010025;28;21653;-74
2022/08/18 06:24:17;;;;;;;4.75;4.38;;;22.30;77.10;;;;;;4992992;28;20694;-74
2022/08/18 06:27:02;;;;;;;4.97;4.68;;;22.40;76.90;;;;;;5009961;28;20275;-74
2022/08/18 06:29:46;;;;;;;7.03;5.18;;;22.50;77.90;;;;;;4999177;28;20201;-74
2022/08/18 06:32:42;;;;;;;5.25;4.75;;;22.60;76.70;;;;;;5007452;28;20765;-74
2022/08/18 06:35:11;;;;;;;5.50;5.00;;;22.60;76.70;;;;;;5001710;28;20615;-75
2022/08/18 06:40:49;;;;;;;5.35;4.95;;;22.80;76.30;;;;;;5008900;28;20717;-74
2022/08/18 06:43:16;;;;;;;5.40;5.05;;;22.90;76.80;;;;;;5033279;28;20190;-74
2022/08/18 06:45:47;;;;;;;5.25;4.80;;;22.90;76.60;;;;;;5050475;28;20240;-74
2022/08/18 06:48:21;;;;;;;5.40;5.10;;;23.00;76.40;;;;;;5045110;28;20244;-75
2022/08/18 06:50:59;;;;;;;5.38;5.00;;;23.10;76.40;;;;;;5046625;28;20440;-74
2022/08/18 06:54:02;;;;;;;5.85;5.32;;;23.10;76.20;;;;;;5048884;28;20190;-74
2022/08/18 06:56:40;;;;;;;4.78;4.45;;;23.20;76.00;;;;;;5045578;28;20183;-75
2022/08/18 06:59:23;;;;;;;4.65;4.35;;;23.30;75.60;;;;;;5045077;28;20183;-74
2022/08/18 07:01:53;;;;;;;5.25;4.57;;;23.40;75.50;;;;;;5040728;28;20219;-74
2022/08/18 07:04:41;;;;;;;4.70;4.38;;;23.50;75.80;;;;;;5048009;28;20184;-74
2022/08/18 07:07:19;;;;;;;4.55;4.25;;;23.60;76.20;;;;;;5049849;28;20184;-74
2022/08/18 07:09:46;;;;;;;4.90;4.30;;;23.70;75.50;;;;;;5044928;28;20190;-74
2022/08/18 07:12:21;;;;;;;4.70;4.30;;;23.80;75.20;;;;;;5047350;28;20201;-75
2022/08/18 07:14:53;;;;;;;4.47;4.25;;;23.90;74.60;;;;;;5049087;28;20683;-75
2022/08/18 07:17:26;;;;;;;5.45;3.92;;;24.00;75.30;;;;;;5048698;28;20203;-75
2022/08/18 07:20:20;;;;;;;5.15;4.60;;;24.10;75.00;;;;;;5044507;28;20237;-75
2022/08/18 07:22:58;;;;;;;5.40;4.00;;;24.30;75.10;;;;;;5048867;28;20695;-75
2022/08/18 07:25:44;;;;;;;4.10;3.80;;;24.40;74.60;;;;;;5049500;28;20293;-73
2022/08/18 07:28:36;;;;;;;4.55;4.35;;;24.60;75.30;;;;;;5042654;28;20177;-73
2022/08/18 07:31:30;;;;;;;5.65;3.42;;;24.70;74.80;;;;;;5047245;28;20675;-74
2022/08/18 07:34:19;;;;;;;3.85;3.60;;;24.80;73.50;;;;;;5003192;28;20302;-73
2022/08/18 07:37:20;;;;;;;4.10;3.72;;;25.00;73.30;;;;;;5017930;28;20237;-73
2022/08/18 07:40:01;;;;;;;3.53;3.40;;;25.20;72.70;;;;;;5019293;28;20188;-75
2022/08/18 07:42:46;;;;;;;3.97;3.78;;;25.40;72.20;;;;;;5003307;28;20219;-75
2022/08/18 07:45:22;;;;;;;4.28;3.95;;;25.50;71.40;;;;;;5015094;28;20606;-76
2022/08/18 07:47:54;;;;;;;3.88;3.63;;;25.70;71.70;;;;;;5015479;28;20219;-75
2022/08/18 07:50:22;;;;;;;3.67;3.47;;;25.90;71.70;;;;;;5010438;28;20216;-74
2022/08/18 07:53:01;;;;;;;3.75;3.60;;;26.00;72.40;;;;;;5014445;28;20188;-73
2022/08/18 07:55:34;;;;;;;3.53;3.17;;;26.10;71.40;;;;;;4997943;28;20188;-74
2022/08/18 07:58:36;;;;;;;3.65;3.55;;;26.20;71.10;;;;;;5001046;28;20371;-74
2022/08/18 08:01:28;;;;;;;4.13;3.78;;;26.30;71.00;;;;;;5000846;28;20191;-74
2022/08/18 08:04:15;;;;;;;5.85;3.80;;;26.40;70.40;;;;;;4996772;28;20233;-74
2022/08/18 08:06:51;;;;;;;4.07;3.88;;;26.50;70.00;;;;;;5014149;28;20715;-75
2022/08/18 08:09:30;;;;;;;3.55;3.42;;;26.50;69.50;;;;;;5017258;28;20186;-75
2022/08/18 08:12:01;;;;;;;3.65;3.47;;;26.60;69.50;;;;;;5044120;28;20762;-75
2022/08/18 08:14:54;;;;;;;3.80;3.60;;;26.80;69.30;;;;;;5048571;28;20190;-75
2022/08/18 08:17:46;;;;;;;3.80;3.10;;;26.90;69.20;;;;;;5049138;28;20293;-74
2022/08/18 08:20:36;;;;;;;6.60;3.67;;;26.90;67.80;;;;;;5049703;28;20190;-74
2022/08/18 08:23:24;;;;;;;4.13;3.63;;;27.10;68.40;;;;;;5053466;28;20255;-74
2022/08/18 08:25:59;;;;;;;3.80;3.60;;;27.20;68.90;;;;;;5048912;28;20191;-74
2022/08/18 08:28:50;;;;;;;3.65;3.45;;;27.40;68.60;;;;;;5041787;28;20260;-74
2022/08/18 08:31:23;;;;;;;3.78;3.67;;;27.50;67.60;;;;;;5046742;28;20707;-74
2022/08/18 08:33:53;;;;;;;3.72;3.20;;;27.60;67.70;;;;;;5048755;28;20176;-74
2022/08/18 08:36:27;;;;;;;3.60;3.40;;;27.80;67.80;;;;;;5046575;28;20192;-74
2022/08/18 08:39:09;;;;;;;5.18;3.58;;;27.90;67.90;;;;;;5053848;28;20284;-74
2022/08/18 08:41:40;;;;;;;3.88;3.58;;;28.00;67.80;;;;;;5052242;28;20183;-74
2022/08/18 08:44:12;;;;;;;3.22;3.03;;;28.10;67.10;;;;;;5046703;28;20195;-74
2022/08/18 08:46:58;;;;;;;2.95;2.85;;;28.30;66.60;;;;;;5044997;28;20182;-74
2022/08/18 08:49:49;;;;;;;3.35;3.17;;;28.40;65.90;;;;;;5051384;28;20187;-74
2022/08/18 08:52:24;;;;;;;2.83;2.75;;;28.60;66.90;;;;;;5045974;28;20183;-74
2022/08/18 08:54:52;;;;;;;3.05;2.92;;;28.70;63.30;;;;;;5052557;28;20591;-74
2022/08/18 08:57:20;;;;;;;3.03;2.92;;;28.70;62.70;;;;;;5052677;28;20221;-74
2022/08/18 08:59:49;;;;;;;3.25;3.10;;;28.80;61.40;;;;;;5052192;28;20191;-75
2022/08/18 09:02:46;;;;;;;3.10;2.90;;;28.90;61.70;;;;;;5057158;28;20187;-74
2022/08/18 09:05:18;;;;;;;3.00;2.80;;;29.10;63.60;;;;;;5054185;28;20187;-75
2022/08/18 09:08:12;;;;;;;3.33;3.22;;;29.20;64.00;;;;;;5054106;28;20732;-74
2022/08/18 09:11:13;;;;;;;3.53;2.92;;;29.40;63.20;;;;;;5053128;28;20294;-74
2022/08/18 09:13:58;;;;;;;3.05;2.95;;;29.60;62.00;;;;;;5014880;28;20193;-74
2022/08/18 09:16:47;;;;;;;3.17;3.05;;;29.70;61.60;;;;;;5014242;28;20181;-75
2022/08/18 09:19:25;;;;;;;2.90;2.80;;;29.90;61.00;;;;;;5010794;28;20367;-74
2022/08/18 09:22:03;;;;;;;2.97;2.88;;;30.10;61.40;;;;;;5008547;28;20216;-74
2022/08/18 09:24:44;;;;;;;3.40;2.85;;;30.30;60.20;;;;;;5002928;28;20199;-74
2022/08/18 09:27:22;;;;;;;3.58;3.38;;;30.60;59.80;;;;;;5007012;28;20188;-75
2022/08/18 09:29:57;;;;;;;3.25;3.15;;;31.00;59.30;;;;;;5009577;28;20316;-75
2022/08/18 09:32:23;;;;;;;3.25;2.90;;;31.40;59.30;;;;;;5009181;28;20191;-74
2022/08/18 09:34:58;;;;;;;3.13;2.88;;;31.80;57.90;;;;;;5007567;28;20228;-74
2022/08/18 09:37:41;;;;;;;3.55;3.38;;;32.30;57.00;;;;;;5010829;28;20227;-76
2022/08/18 09:43:23;;;;;;;3.25;3.10;;;33.50;53.50;;;;;;5016296;28;20378;-76
2022/08/18 09:46:00;;;;;;;2.80;2.75;;;34.10;53.50;;;;;;5013134;28;20192;-76
2022/08/18 09:48:28;;;;;;;3.05;2.92;;;34.60;53.50;;;;;;5015476;28;20187;-76
2022/08/18 09:51:19;;;;;;;2.85;2.67;;;35.20;52.30;;;;;;5037408;28;20202;-75
2022/08/18 09:53:45;;;;;;;2.85;2.72;;;35.60;51.90;;;;;;5051264;28;20663;-76
2022/08/18 09:56:13;;;;;;;2.88;2.78;;;35.70;51.20;;;;;;5045702;28;20210;-75
2022/08/18 09:58:52;;;;;;;2.95;2.85;;;35.50;52.10;;;;;;5049235;28;20298;-75
2022/08/18 10:01:33;;;;;;;2.80;2.60;;;35.70;52.70;;;;;;5045953;28;20244;-74
2022/08/18 10:04:14;;;;;;;2.75;2.60;;;36.00;51.90;;;;;;5042671;28;20218;-74
2022/08/18 10:06:42;;;;;;;2.90;2.90;;;36.50;51.10;;;;;;5038191;28;20175;-74
2022/08/18 10:09:41;;;;;;;2.63;2.63;;;37.20;50.20;;;;;;5049193;28;20194;-73
2022/08/18 10:12:25;;;;;;;2.65;2.55;;;37.40;48.70;;;;;;5015105;28;20196;-73
2022/08/18 10:15:14;;;;;;;2.85;2.83;;;37.70;49.30;;;;;;5018216;28;20419;-74
2022/08/18 10:17:45;;;;;;;3.55;3.25;;;38.10;48.20;;;;;;4921816;29;20222;-75
2022/08/18 10:20:23;;;;;;;2.50;2.40;;;38.50;48.80;;;;;;4940131;28;20449;-75
2022/08/18 10:22:49;;;;;;;2.40;2.40;;;38.80;49.60;;;;;;4938199;28;20296;-74
2022/08/18 10:25:41;;;;;;;2.38;2.30;;;39.10;48.20;;;;;;4942010;29;20186;-74
2022/08/18 10:28:10;;;;;;;2.63;2.42;;;39.50;45.30;;;;;;4940635;29;20346;-73
2022/08/18 10:30:36;;;;;;;2.67;2.53;;;39.80;48.00;;;;;;4942809;29;20208;-75
2022/08/18 10:33:06;;;;;;;2.63;2.45;;;40.20;44.20;;;;;;4943771;28;20551;-75
2022/08/18 10:35:38;;;;;;;6.15;2.38;;;40.50;45.30;;;;;;4942717;29;20267;-75
2022/08/18 10:38:16;;;;;;;2.63;2.50;;;40.70;45.00;;;;;;4941648;29;20714;-75
2022/08/18 10:40:42;;;;;;;2.95;2.80;;;41.00;45.00;;;;;;4953659;29;20194;-75
2022/08/18 10:43:12;;;;;;;3.00;2.83;;;41.50;44.40;;;;;;4948857;28;20205;-75
2022/08/18 10:45:45;;;;;;;8.27;3.03;;;41.40;45.50;;;;;;4950909;28;20199;-75
2022/08/18 10:48:28;;;;;;;2.85;2.85;;;41.50;44.70;;;;;;4959287;28;20289;-75
2022/08/18 10:51:12;;;;;;;2.72;2.63;;;41.80;42.20;;;;;;4994298;28;20254;-75
2022/08/18 10:53:59;;;;;;;2.40;2.40;;;42.20;43.70;;;;;;5000460;28;20197;-75
2022/08/18 10:56:44;;;;;;;2.85;2.50;;;42.40;42.20;;;;;;5055732;28;20209;-75
2022/08/18 10:59:40;;;;;;;2.08;2.05;;;42.30;42.50;;;;;;5057489;28;20249;-76
2022/08/18 11:02:20;;;;;;;1.95;1.95;;;42.60;42.40;;;;;;5050580;28;20191;-75
2022/08/18 11:04:50;;;;;;;2.22;2.20;;;43.00;45.90;;;;;;5045643;28;20194;-74
2022/08/18 11:07:22;;;;;;;2.15;2.15;;;43.60;45.20;;;;;;5047790;28;20183;-74
2022/08/18 11:09:50;;;;;;;2.42;2.42;;;44.10;42.90;;;;;;5043174;28;20205;-74
2022/08/18 11:12:52;;;;;;;2.03;2.03;;;44.70;44.90;;;;;;5045097;28;20241;-75
2022/08/18 11:15:35;;;;;;;2.55;2.38;;;45.40;40.90;;;;;;5045630;28;20187;-75
2022/08/18 11:18:18;;;;;;;18.33;3.83;;;45.90;41.90;;;;;;5043220;28;20722;-75
2022/08/18 11:20:44;;;;;;;2.20;2.10;;;46.30;41.30;;;;;;5046572;28;20185;-74
2022/08/18 11:23:16;;;;;;;2.00;2.00;;;46.60;40.80;;;;;;5048455;28;21012;-75
2022/08/18 11:25:43;;;;;;;2.13;2.13;;;46.70;41.40;;;;;;5053935;28;20183;-75
2022/08/18 11:28:22;;;;;;;2.17;2.15;;;46.80;42.30;;;;;;5049454;28;20186;-74
2022/08/18 11:30:51;;;;;;;2.63;2.40;;;46.60;40.40;;;;;;5052475;28;20208;-74
2022/08/18 11:33:18;;;;;;;2.22;2.17;;;46.40;41.00;;;;;;5059728;28;20171;-75
2022/08/18 11:35:56;;;;;;;1.98;1.88;;;46.60;41.40;;;;;;5058195;28;20194;-75
2022/08/18 11:38:22;;;;;;;2.10;2.10;;;46.60;38.20;;;;;;5054529;28;20206;-75
2022/08/18 11:40:53;;;;;;;2.35;2.35;;;46.40;41.50;;;;;;5047473;28;20210;-75
2022/08/18 11:43:32;;;;;;;4.00;2.17;;;46.20;39.10;;;;;;5054694;28;20264;-75
2022/08/18 11:46:03;;;;;;;1.95;1.95;;;45.80;37.50;;;;;;5055769;28;20198;-75
2022/08/18 11:48:44;;;;;;;2.28;2.28;;;44.80;38.70;;;;;;5058067;28;20214;-75
2022/08/18 11:51:18;;;;;;;1.90;1.77;;;44.60;39.00;;;;;;5056387;28;20236;-73
2022/08/18 11:53:46;;;;;;;2.70;2.60;;;44.30;39.10;;;;;;5043637;28;20186;-72
2022/08/18 11:56:33;;;;;;;2.67;2.50;;;44.10;39.00;;;;;;5041601;28;20232;-73
2022/08/18 11:59:23;;;;;;;2.10;1.92;;;43.80;39.40;;;;;;5043966;28;20323;-74
2022/08/18 12:01:53;;;;;;;2.65;2.65;;;43.40;41.80;;;;;;5049157;28;20195;-74
2022/08/18 12:04:19;;;;;;;2.83;2.72;;;42.90;42.20;;;;;;5047623;28;20537;-74
2022/08/18 12:07:09;;;;;;;2.53;2.25;;;42.70;41.10;;;;;;5047006;28;20179;-74
2022/08/18 12:10:08;;;;;;;2.47;2.47;;;42.60;41.50;;;;;;5042458;28;20708;-74
2022/08/18 12:12:42;;;;;;;2.03;2.03;;;42.60;42.60;;;;;;5045022;28;20193;-74
2022/08/18 12:15:11;;;;;;;2.65;2.45;;;43.00;42.30;;;;;;5047939;28;20227;-74
2022/08/18 12:17:37;;;;;;;1.60;1.60;;;43.60;42.60;;;;;;5046244;28;20675;-74
2022/08/18 12:20:10;;;;;;;2.00;2.00;;;44.20;43.20;;;;;;5048207;28;20569;-75
2022/08/18 12:22:37;;;;;;;2.30;2.15;;;44.40;41.10;;;;;;5047607;28;20621;-74
2022/08/18 12:25:07;;;;;;;2.85;2.60;;;44.50;40.10;;;;;;5044202;28;21825;-75
2022/08/18 12:27:33;;;;;;;2.25;2.25;;;44.50;42.00;;;;;;5045834;28;20225;-75
2022/08/18 12:30:00;;;;;;;2.05;2.05;;;44.60;42.00;;;;;;5056481;28;20607;-75
2022/08/18 12:32:28;;;;;;;2.58;2.58;;;44.60;39.00;;;;;;5059126;28;20626;-76
2022/08/18 12:34:54;;;;;;;2.58;2.38;;;44.50;39.80;;;;;;5068717;28;20189;-76
2022/08/18 12:37:23;;;;;;;2.85;2.63;;;44.40;40.40;;;;;;5060305;28;20249;-75
2022/08/18 12:39:50;;;;;;;2.55;2.45;;;44.50;39.80;;;;;;5067546;28;20178;-75
2022/08/18 12:42:16;;;;;;;2.58;2.58;;;44.40;39.70;;;;;;5066967;28;20191;-75
2022/08/18 12:44:42;;;;;;;3.10;2.95;;;44.40;40.30;;;;;;5066973;28;20261;-75
2022/08/18 12:47:14;;;;;;;3.08;2.97;;;44.00;39.90;;;;;;5068709;28;20179;-76
2022/08/18 12:49:40;;;;;;;2.72;2.72;;;43.80;41.70;;;;;;5071614;28;20206;-76
2022/08/18 12:52:06;;;;;;;2.45;2.45;;;43.70;41.70;;;;;;5068396;28;20186;-76
2022/08/18 12:54:34;;;;;;;2.78;2.58;;;44.00;40.40;;;;;;5069158;28;20182;-77
2022/08/18 12:57:02;;;;;;;2.30;2.30;;;44.30;40.50;;;;;;5059590;28;20252;-74
2022/08/18 12:59:28;;;;;;;2.95;2.95;;;44.70;39.40;;;;;;5061584;28;20178;-75
2022/08/18 13:01:54;;;;;;;2.55;2.55;;;45.20;38.80;;;;;;5057483;28;20207;-75
2022/08/18 13:04:20;;;;;;;2.67;2.58;;;45.40;38.60;;;;;;5058164;28;20217;-74
2022/08/18 13:06:49;;;;;;;2.40;2.40;;;45.10;38.20;;;;;;5049551;28;20241;-75
2022/08/18 13:09:15;;;;;;;2.90;2.90;;;44.30;39.30;;;;;;5068092;28;20191;-75
2022/08/18 13:11:40;;;;;;;2.70;2.70;;;44.00;40.30;;;;;;5064432;28;20167;-75
2022/08/18 13:14:07;;;;;;;3.20;3.10;;;43.70;41.10;;;;;;5071557;28;20186;-75
2022/08/18 13:16:35;;;;;;;2.60;2.50;;;43.50;41.30;;;;;;5063012;28;20193;-75
2022/08/18 13:19:01;;;;;;;3.17;3.03;;;43.30;41.60;;;;;;5065057;28;20223;-75
2022/08/18 13:21:27;;;;;;;2.67;2.60;;;43.40;39.90;;;;;;5057289;28;20194;-74
2022/08/18 13:23:53;;;;;;;3.08;2.97;;;43.20;40.30;;;;;;5056476;28;20255;-76
2022/08/18 13:26:29;;;;;;;3.30;3.20;;;42.90;40.20;;;;;;5062875;28;20182;-75
2022/08/18 13:28:55;;;;;;;2.80;2.63;;;42.80;41.00;;;;;;5060959;28;20208;-74
2022/08/18 13:31:20;;;;;;;2.42;2.33;;;42.60;42.40;;;;;;5060532;28;20183;-74
2022/08/18 13:33:46;;;;;;;3.47;2.45;;;42.70;41.60;;;;;;5066960;28;20188;-75
2022/08/18 13:36:12;;;;;;;2.70;2.50;;;43.20;40.10;;;;;;5066145;28;20214;-74